This is the latest recevied weather packets stored in our database for station/object OSTR-WX. If no packets are shown the sender has not sent any weather packets the latest 1 day(s).
| Time | Temp. | Humidity | Pressure | Rain* | Wind** | Luminosity | Snow |
|---|---|---|---|---|---|---|---|
| 1778045386 | 15.56° C | 71% | 1006.9 hPa | - | - | - | - |
| 1778044438 | 15° C | 73% | 1007.1 hPa | - | - | - | - |
| 1778044429 | 15° C | 73% | 1007.1 hPa | - | - | - | - |
| 1778043473 | 14.44° C | 75% | 1007.1 hPa | - | - | - | - |
| 1778042514 | 13.33° C | 78% | 1007.2 hPa | - | - | - | - |
| 1778040602 | 12.22° C | 81% | 1007.2 hPa | - | - | - | - |
| 1778039645 | 12.22° C | 80% | 1007.2 hPa | - | - | - | - |
| 1778038688 | 11.67° C | 81% | 1007.2 hPa | - | - | - | - |
| 1778037730 | 11.11° C | 82% | 1007.3 hPa | - | - | - | - |
| 1778036773 | 10.56° C | 83% | 1007.4 hPa | - | - | - | - |
| 1778034867 | 9.44° C | 85% | 1007.5 hPa | - | - | - | - |
| 1778034860 | 9.44° C | 85% | 1007.5 hPa | - | - | - | - |
| 1778033903 | 9.44° C | 85% | 1007.5 hPa | - | - | - | - |
| 1778031988 | 10° C | 83% | 1007.3 hPa | - | - | - | - |
| 1778031038 | 10° C | 82% | 1007.2 hPa | - | - | - | - |
| 1778031032 | 10° C | 82% | 1007.2 hPa | - | - | - | - |
| 1778028167 | 11.11° C | 78% | 1007.4 hPa | - | - | - | - |
| 1778028160 | 11.11° C | 78% | 1007.4 hPa | - | - | - | - |
| 1778027210 | 11.11° C | 77% | 1007.4 hPa | - | - | - | - |
| 1778027204 | 11.11° C | 77% | 1007.4 hPa | - | - | - | - |
| 1778023376 | 13.33° C | 72% | 1007.3 hPa | - | - | - | - |
| 1778018590 | 15.56° C | 63% | 1007.6 hPa | - | - | - | - |
| 1778017634 | 16.11° C | 60% | 1007.6 hPa | - | - | - | - |
| 1778009020 | 17.22° C | 53% | 1007.5 hPa | - | - | - | - |
| 1778007106 | 18.89° C | 47% | 1007.1 hPa | - | - | - | - |
* Rain since midnight (hover to see other rain measurements)
** Current wind speed in m/s (hover to see current wind gust speed)